Time;durP1;ratioP1;P1;durP2;ratioP2;P2;SDS_P1;SDS_P2;PMS_P1;PMS_P2;Temp;Humidity;BMP_temperature;BMP_pressure;BME280_temperature;BME280_humidity;BME280_pressure;Samples;Min_cycle;Max_cycle;Signal;HPM_P1;HPM_P2
2023/02/05 00:02:45;;;;;;;8.80;4.77;;;;;;;7.00;56.16;100774.56;7036314;28;20822;-79
2023/02/05 00:06:07;;;;;;;9.40;5.00;;;;;;;7.08;55.90;100819.50;7035086;28;20283;-79
2023/02/05 00:09:32;;;;;;;8.57;5.00;;;;;;;6.53;57.42;100766.28;7041351;28;20280;-79
2023/02/05 00:21:01;;;;;;;7.17;5.03;;;;;;;6.63;57.29;100777.91;7044216;28;20241;-80
2023/02/05 00:24:24;;;;;;;6.03;4.63;;;;;;;6.70;57.27;100761.16;7048477;28;20224;-80
2023/02/05 00:27:47;;;;;;;8.20;4.67;;;;;;;7.14;57.14;100803.69;7048599;28;20240;-80
2023/02/05 00:31:10;;;;;;;5.73;4.23;;;;;;;7.12;55.95;100752.03;7050531;28;20210;-79
2023/02/05 00:34:31;;;;;;;7.17;4.73;;;;;;;7.34;55.81;100791.22;7050924;28;20237;-80
2023/02/05 00:37:55;;;;;;;7.70;4.63;;;;;;;6.84;57.68;100787.63;7045142;28;20286;-79
2023/02/05 00:41:16;;;;;;;8.53;5.07;;;;;;;6.47;58.89;100794.47;7034521;28;20270;-79
2023/02/05 00:44:39;;;;;;;7.03;4.70;;;;;;;6.78;58.86;100795.38;7034223;28;20574;-79
2023/02/05 00:48:01;;;;;;;9.57;5.80;;;;;;;6.98;58.45;100795.31;7034644;28;20290;-80
2023/02/05 00:51:22;;;;;;;9.43;7.57;;;;;;;7.09;58.20;100794.38;7033965;28;20286;-79
2023/02/05 00:54:44;;;;;;;8.40;4.73;;;;;;;7.25;56.50;100759.84;7034393;28;20290;-80
2023/02/05 00:58:06;;;;;;;7.00;4.40;;;;;;;7.31;56.71;100756.63;7034074;28;20776;-80
2023/02/05 01:01:29;;;;;;;7.13;4.13;;;;;;;6.72;57.69;100772.59;7020362;28;20709;-80
2023/02/05 01:04:51;;;;;;;8.60;4.83;;;;;;;7.23;57.55;100797.53;7003873;28;20246;-80
2023/02/05 01:08:13;;;;;;;5.87;4.27;;;;;;;7.06;57.82;100791.94;7004728;28;20295;-81
2023/02/05 01:11:35;;;;;;;9.20;4.70;;;;;;;6.68;58.45;100752.44;7004137;28;20207;-80
2023/02/05 01:14:56;;;;;;;8.47;4.70;;;;;;;6.98;58.21;100787.28;7006045;28;20637;-80
2023/02/05 01:18:19;;;;;;;6.30;5.43;;;;;;;6.97;58.78;100771.31;7031461;28;20279;-80
2023/02/05 01:21:40;;;;;;;8.00;5.57;;;;;;;7.07;58.25;100765.00;7032014;28;20754;-80
2023/02/05 01:25:02;;;;;;;5.23;4.77;;;;;;;7.08;57.84;100731.00;7031572;28;20348;-80
2023/02/05 01:28:24;;;;;;;7.97;4.40;;;;;;;7.60;57.06;100763.75;7032321;28;20835;-79
2023/02/05 01:31:45;;;;;;;9.67;5.57;;;;;;;7.83;56.16;100762.50;7032275;28;20212;-81
2023/02/05 01:35:09;;;;;;;5.83;4.07;;;;;;;7.43;56.45;100748.31;7031529;28;20725;-79
2023/02/05 01:38:30;;;;;;;8.10;4.90;;;;;;;7.11;58.06;100757.53;7032503;28;20281;-80
2023/02/05 01:41:52;;;;;;;7.00;4.83;;;;;;;7.12;58.08;100745.81;7032149;28;20547;-79
2023/02/05 01:45:38;;;;;;;6.07;4.60;;;;;;;7.37;57.55;100748.03;7031208;28;20214;-81
2023/02/05 01:49:01;;;;;;;6.13;4.30;;;;;;;7.63;56.68;100749.19;7031318;28;20288;-80
2023/02/05 01:52:24;;;;;;;8.23;4.60;;;;;;;7.27;57.43;100755.19;7031451;28;20291;-80
2023/02/05 01:55:48;;;;;;;6.63;4.33;;;;;;;7.37;57.01;100738.13;7030734;28;20353;-80
2023/02/05 01:59:12;;;;;;;6.20;4.37;;;;;;;6.98;57.35;100739.00;7031420;28;20229;-79
2023/02/05 02:02:34;;;;;;;7.23;4.77;;;;;;;7.07;58.54;100738.19;7034091;28;20298;-80
2023/02/05 02:05:57;;;;;;;7.47;4.30;;;;;;;7.22;57.51;100676.94;7039212;28;20288;-79
2023/02/05 02:09:35;;;;;;;7.43;4.40;;;;;;;7.13;55.82;100598.16;7045189;28;20447;-79
2023/02/05 02:17:37;;;;;;;7.93;4.33;;;;;;;6.43;59.03;100675.13;7042511;28;20261;-80
2023/02/05 02:21:27;;;;;;;9.03;4.93;;;;;;;6.75;58.89;100627.59;7043656;28;20318;-79
2023/02/05 02:25:40;;;;;;;6.80;5.27;;;;;;;6.70;58.27;100605.72;7043966;28;20218;-79
2023/02/05 02:29:41;;;;;;;7.63;4.87;;;;;;;6.70;58.45;100607.53;7041626;28;20237;-79
2023/02/05 02:33:23;;;;;;;8.27;5.10;;;;;;;7.22;58.32;100682.31;7024566;28;20290;-80
2023/02/05 02:40:51;;;;;;;8.13;5.23;;;;;;;7.58;57.24;100682.50;7025711;28;20710;-79
2023/02/05 02:48:13;;;;;;;5.17;4.67;;;;;;;6.41;59.15;100588.69;7038730;28;20582;-79
2023/02/05 02:51:44;;;;;;;8.17;5.57;;;;;;;7.59;57.53;100699.44;7041706;28;20204;-80
2023/02/05 03:10:41;;;;;;;9.57;6.00;;;;;;;6.86;57.20;100581.91;7012905;28;20227;-79
2023/02/05 03:14:09;;;;;;;9.00;6.17;;;;;;;7.42;56.49;100633.91;7031922;28;20199;-80
2023/02/05 03:17:54;;;;;;;10.87;7.00;;;;;;;7.16;56.97;100588.97;7053742;28;20310;-80
2023/02/05 03:21:32;;;;;;;9.53;6.00;;;;;;;7.60;56.21;100674.31;7029685;28;20284;-79
2023/02/05 03:24:54;;;;;;;7.17;5.97;;;;;;;7.50;56.91;100670.78;7059656;28;20210;-80
2023/02/05 03:28:15;;;;;;;8.67;5.97;;;;;;;6.92;56.83;100596.56;7060226;28;20230;-79
2023/02/05 03:31:44;;;;;;;8.50;5.43;;;;;;;7.54;56.26;100662.28;7058190;28;20203;-80
2023/02/05 03:35:16;;;;;;;8.20;6.10;;;;;;;7.03;56.26;100583.06;7058268;28;20193;-80
2023/02/05 03:38:51;;;;;;;9.63;6.40;;;;;;;6.92;56.28;100551.00;7059409;28;20261;-79
2023/02/05 03:42:18;;;;;;;8.30;5.83;;;;;;;7.71;55.60;100612.44;7058821;28;20211;-81
2023/02/05 03:45:46;;;;;;;11.63;6.40;;;;;;;7.72;54.47;100574.69;7058606;28;20188;-79
2023/02/05 03:49:14;;;;;;;8.37;6.23;;;;;;;8.04;54.21;100646.84;7058656;28;20226;-81
2023/02/05 03:52:41;;;;;;;9.60;4.77;;;;;;;7.54;55.70;100627.41;7059321;28;20221;-79
2023/02/05 03:56:06;;;;;;;6.77;4.83;;;;;;;7.31;55.72;100566.13;7057546;28;20229;-79
2023/02/05 03:59:28;;;;;;;7.30;4.80;;;;;;;7.30;56.56;100669.06;7058276;28;20250;-79
2023/02/05 04:02:50;;;;;;;7.13;6.43;;;;;;;7.28;57.28;100673.72;7057245;28;20262;-80
2023/02/05 04:06:12;;;;;;;8.60;6.23;;;;;;;6.94;56.77;100567.78;7057487;28;20223;-79
2023/02/05 04:09:33;;;;;;;6.87;5.50;;;;;;;7.50;56.17;100622.47;7047360;28;20280;-79
2023/02/05 04:12:56;;;;;;;7.40;5.60;;;;;;;7.02;56.06;100539.28;7054619;28;20206;-79
2023/02/05 04:16:18;;;;;;;9.13;6.00;;;;;;;7.17;55.90;100599.56;7055647;28;20237;-80
2023/02/05 04:19:40;;;;;;;8.70;5.90;;;;;;;6.68;56.05;100529.94;7055887;28;20260;-80
2023/02/05 04:23:01;;;;;;;10.17;5.93;;;;;;;6.59;57.09;100564.75;7057261;28;20211;-79
2023/02/05 04:26:23;;;;;;;8.40;6.00;;;;;;;6.50;57.19;100578.97;7055775;28;20200;-79
2023/02/05 04:29:46;;;;;;;10.27;7.27;;;;;;;6.32;58.48;100559.19;7056138;28;20229;-79
2023/02/05 04:33:07;;;;;;;11.03;7.53;;;;;;;7.21;57.06;100637.69;7056264;28;20206;-79
2023/02/05 04:36:29;;;;;;;9.33;7.30;;;;;;;6.63;57.96;100612.59;7054569;28;20228;-80
2023/02/05 04:39:50;;;;;;;11.27;6.73;;;;;;;6.52;57.37;100561.78;7054775;28;20213;-79
2023/02/05 04:43:12;;;;;;;11.93;7.17;;;;;;;6.80;58.64;100635.22;7055547;28;20323;-79
2023/02/05 04:46:35;;;;;;;11.80;7.67;;;;;;;7.10;57.89;100648.53;7054095;28;20228;-79
2023/02/05 04:49:56;;;;;;;12.80;7.47;;;;;;;6.80;57.52;100558.34;7055113;28;20259;-80
2023/02/05 04:53:18;;;;;;;10.80;7.80;;;;;;;7.25;57.18;100650.69;7055861;28;20210;-79
2023/02/05 04:56:40;;;;;;;11.40;7.93;;;;;;;6.66;57.15;100564.06;7054337;28;20639;-79
2023/02/05 05:00:01;;;;;;;10.83;8.83;;;;;;;7.08;57.24;100647.84;7054351;28;20233;-80
2023/02/05 05:03:24;;;;;;;13.23;8.10;;;;;;;6.81;57.75;100635.09;7048782;28;20263;-79
2023/02/05 05:06:45;;;;;;;17.03;7.73;;;;;;;6.14;58.42;100556.28;7052738;28;20206;-79
2023/02/05 05:10:08;;;;;;;16.27;8.70;;;;;;;7.00;57.84;100626.22;7052768;28;20244;-79
2023/02/05 05:13:29;;;;;;;15.40;9.23;;;;;;;7.11;57.16;100645.75;7052878;28;20210;-79
2023/02/05 05:16:51;;;;;;;17.07;8.73;;;;;;;6.85;57.00;100584.72;7047463;28;20224;-79
2023/02/05 05:20:14;;;;;;;14.10;8.80;;;;;;;7.28;57.13;100642.38;7050727;28;20253;-79
2023/02/05 05:23:36;;;;;;;18.33;8.80;;;;;;;7.07;56.44;100579.94;7052498;28;20207;-79
2023/02/05 05:26:59;;;;;;;15.70;8.90;;;;;;;7.42;56.37;100643.81;7051633;28;20217;-79
2023/02/05 05:30:20;;;;;;;12.87;8.00;;;;;;;6.89;56.75;100592.34;7031967;28;20222;-79
2023/02/05 05:33:42;;;;;;;15.03;7.97;;;;;;;7.22;57.11;100647.44;7031550;28;20314;-79
2023/02/05 05:37:05;;;;;;;14.60;8.97;;;;;;;7.21;57.16;100659.16;7030353;28;20210;-80
2023/02/05 05:44:06;;;;;;;13.57;7.87;;;;;;;6.67;58.07;100651.53;7030803;28;20641;-80
2023/02/05 05:47:27;;;;;;;12.17;8.10;;;;;;;6.55;58.57;100654.47;7030339;28;20310;-79
2023/02/05 05:50:49;;;;;;;14.30;8.67;;;;;;;7.03;57.49;100650.94;7031267;28;20673;-80
2023/02/05 05:54:12;;;;;;;18.27;10.40;;;;;;;6.79;58.32;100663.00;7030629;28;20292;-82
2023/02/05 05:57:33;;;;;;;26.30;9.07;;;;;;;6.73;58.63;100650.97;7030367;28;20324;-79
2023/02/05 06:00:55;;;;;;;11.77;8.37;;;;;;;6.73;59.06;100650.16;7031073;28;20226;-80
2023/02/05 06:04:16;;;;;;;12.10;7.90;;;;;;;7.20;57.60;100636.00;7030803;28;20277;-79
2023/02/05 06:07:38;;;;;;;15.47;8.57;;;;;;;7.01;57.48;100636.81;7030244;28;20233;-79
2023/02/05 06:11:01;;;;;;;14.97;9.00;;;;;;;6.86;56.71;100632.00;7030420;28;20715;-79
2023/02/05 06:14:22;;;;;;;16.10;10.20;;;;;;;6.05;59.31;100625.84;7029940;28;20230;-79
2023/02/05 06:17:44;;;;;;;21.33;9.23;;;;;;;6.94;58.32;100616.03;7028328;28;20233;-80
2023/02/05 06:21:05;;;;;;;19.37;9.23;;;;;;;7.26;57.28;100617.50;7028921;28;20217;-79
2023/02/05 06:24:27;;;;;;;13.03;8.73;;;;;;;7.11;56.69;100618.06;7028718;28;20205;-79
2023/02/05 06:27:50;;;;;;;11.40;8.07;;;;;;;7.29;57.29;100619.91;7029713;28;20320;-79
2023/02/05 06:31:11;;;;;;;13.47;8.47;;;;;;;6.96;58.18;100624.81;7030629;28;20207;-79
2023/02/05 06:34:33;;;;;;;16.37;8.87;;;;;;;6.72;58.99;100622.50;7030502;28;20347;-79
2023/02/05 06:37:54;;;;;;;11.07;7.40;;;;;;;6.58;59.22;100622.00;7031636;28;20279;-80
2023/02/05 06:41:16;;;;;;;11.57;8.17;;;;;;;6.61;59.01;100624.44;7036350;28;20320;-80
2023/02/05 06:44:38;;;;;;;24.83;8.03;;;;;;;6.65;58.84;100631.19;7037194;28;20328;-79
2023/02/05 06:48:00;;;;;;;8.47;7.10;;;;;;;6.73;58.46;100610.78;7037986;28;20352;-80
2023/02/05 06:51:21;;;;;;;9.70;7.17;;;;;;;6.24;58.79;100621.47;7037913;28;20289;-79
2023/02/05 06:54:43;;;;;;;10.67;6.93;;;;;;;6.40;59.20;100643.25;7037007;28;20236;-79
2023/02/05 06:58:06;;;;;;;9.67;7.30;;;;;;;6.65;58.73;100626.69;7036655;28;20223;-79
2023/02/05 07:01:29;;;;;;;12.07;7.13;;;;;;;7.19;57.77;100653.94;7036581;28;20716;-79
2023/02/05 07:04:50;;;;;;;15.37;8.27;;;;;;;7.31;57.31;100627.84;7036814;28;20293;-79
2023/02/05 07:08:12;;;;;;;14.37;7.53;;;;;;;7.51;56.80;100651.00;7036953;28;20313;-77
2023/02/05 07:11:33;;;;;;;13.30;7.50;;;;;;;7.22;57.53;100655.47;7037043;28;20321;-79
2023/02/05 07:14:55;;;;;;;10.27;7.63;;;;;;;6.96;57.61;100657.00;7037793;28;20258;-80
2023/02/05 07:18:18;;;;;;;13.27;8.13;;;;;;;7.39;57.17;100652.97;7032470;28;20678;-79
2023/02/05 07:21:40;;;;;;;10.83;7.40;;;;;;;7.18;57.13;100649.56;7037936;28;20256;-81
2023/02/05 07:25:01;;;;;;;9.57;7.50;;;;;;;7.56;57.41;100660.34;7037578;28;20230;-80
2023/02/05 07:28:23;;;;;;;9.73;7.60;;;;;;;7.39;56.71;100654.81;7036583;28;20232;-79
2023/02/05 07:31:45;;;;;;;12.43;7.43;;;;;;;7.79;56.45;100634.03;7037194;28;20250;-78
2023/02/05 07:35:08;;;;;;;15.13;7.77;;;;;;;7.79;56.13;100625.97;7034899;28;20216;-79
2023/02/05 07:38:29;;;;;;;10.97;8.13;;;;;;;7.47;56.83;100633.47;7034783;28;20253;-79
2023/02/05 07:41:52;;;;;;;13.47;9.13;;;;;;;7.26;57.50;100636.28;7021510;28;20223;-79
2023/02/05 07:45:13;;;;;;;17.90;10.33;;;;;;;7.18;58.10;100633.47;7028213;28;20207;-78
2023/02/05 07:48:35;;;;;;;12.43;9.07;;;;;;;7.29;58.05;100619.06;7032251;28;20361;-79
2023/02/05 07:51:58;;;;;;;12.97;8.90;;;;;;;7.62;57.11;100602.53;7030949;28;20340;-80
2023/02/05 07:55:19;;;;;;;13.27;8.97;;;;;;;7.66;56.87;100615.53;7021292;28;20273;-79
2023/02/05 07:58:41;;;;;;;12.97;8.97;;;;;;;7.77;56.81;100610.00;7012972;28;20276;-80
2023/02/05 08:02:03;;;;;;;13.73;8.80;;;;;;;7.76;57.03;100621.75;7015487;28;20223;-79
2023/02/05 08:05:24;;;;;;;16.33;10.50;;;;;;;7.80;56.85;100608.88;7005778;28;20669;-78
2023/02/05 08:08:47;;;;;;;16.00;10.73;;;;;;;7.68;57.02;100618.06;7006134;28;20281;-79
2023/02/05 08:12:08;;;;;;;18.80;10.73;;;;;;;7.55;57.13;100607.63;7006277;28;20265;-79
2023/02/05 08:15:30;;;;;;;16.73;9.70;;;;;;;8.19;56.64;100618.56;7006819;28;20207;-78
2023/02/05 08:18:52;;;;;;;17.83;9.83;;;;;;;8.44;55.45;100617.91;7005266;28;20295;-78
2023/02/05 08:22:13;;;;;;;19.30;11.20;;;;;;;8.38;56.13;100608.59;7006754;28;20250;-78
2023/02/05 08:25:36;;;;;;;22.13;10.23;;;;;;;8.28;56.45;100612.31;7006309;28;20298;-78
2023/02/05 08:28:58;;;;;;;17.93;10.97;;;;;;;8.23;56.97;100620.81;7006239;28;20234;-78
2023/02/05 08:32:20;;;;;;;17.43;10.20;;;;;;;8.42;56.62;100611.84;7007073;28;20201;-79
2023/02/05 08:35:41;;;;;;;17.23;10.23;;;;;;;8.47;55.69;100572.78;7007838;28;20655;-79
2023/02/05 08:39:03;;;;;;;16.87;8.07;;;;;;;8.52;55.76;100610.81;7008166;28;20836;-79
2023/02/05 08:42:26;;;;;;;20.73;8.53;;;;;;;8.74;55.44;100567.41;7007778;28;20229;-79
2023/02/05 08:45:48;;;;;;;10.80;7.70;;;;;;;8.73;54.79;100586.38;7006731;28;20738;-79
2023/02/05 08:49:09;;;;;;;12.90;7.47;;;;;;;8.78;54.38;100555.31;7007377;28;20310;-79
2023/02/05 08:52:31;;;;;;;14.63;7.63;;;;;;;9.07;54.17;100572.97;7007556;28;20269;-80
2023/02/05 08:55:55;;;;;;;11.03;7.60;;;;;;;9.25;53.71;100586.41;7007405;28;20265;-79
2023/02/05 08:59:19;;;;;;;10.73;7.17;;;;;;;8.93;53.41;100539.50;7008897;28;20279;-78
2023/02/05 09:02:43;;;;;;;16.23;9.50;;;;;;;9.15;53.51;100556.91;7021011;28;20228;-78
2023/02/05 09:06:07;;;;;;;10.90;6.90;;;;;;;8.68;53.72;100460.44;7019799;28;20202;-79
2023/02/05 09:09:29;;;;;;;12.43;8.37;;;;;;;8.81;53.54;100450.16;7020958;28;20700;-79
2023/02/05 09:12:51;;;;;;;12.70;7.13;;;;;;;9.38;53.21;100523.13;7040391;28;20234;-79
2023/02/05 09:16:14;;;;;;;13.53;7.60;;;;;;;9.41;53.26;100482.44;7049029;28;20210;-79
2023/02/05 09:19:38;;;;;;;14.37;7.47;;;;;;;9.18;53.17;100469.63;7049185;28;20285;-79
2023/02/05 09:23:00;;;;;;;15.80;6.83;;;;;;;8.91;52.93;100393.56;7046651;28;20614;-78
2023/02/05 09:26:21;;;;;;;17.50;9.93;;;;;;;9.38;53.33;100522.25;7047207;28;20293;-79
2023/02/05 09:29:43;;;;;;;13.67;7.47;;;;;;;9.39;53.72;100537.44;7043149;28;20290;-78
2023/02/05 09:33:06;;;;;;;13.80;8.23;;;;;;;9.63;52.89;100545.72;7032668;28;20314;-80
2023/02/05 09:36:27;;;;;;;14.97;9.20;;;;;;;9.79;53.25;100535.88;7031639;28;20209;-79
2023/02/05 09:39:49;;;;;;;14.53;9.07;;;;;;;9.83;53.31;100545.34;7032113;28;20261;-80
2023/02/05 09:43:23;;;;;;;12.77;8.50;;;;;;;9.83;53.15;100531.88;7032331;28;20286;-79
2023/02/05 09:46:50;;;;;;;12.73;7.87;;;;;;;9.73;52.91;100530.28;7031846;28;20555;-79
2023/02/05 09:50:17;;;;;;;15.07;8.90;;;;;;;9.54;54.18;100517.88;7032191;28;20232;-79
2023/02/05 09:53:42;;;;;;;15.73;9.37;;;;;;;9.59;54.64;100526.34;7039417;28;20308;-80
2023/02/05 09:57:06;;;;;;;14.50;8.90;;;;;;;9.46;54.70;100490.03;7032843;28;20209;-78
2023/02/05 10:00:31;;;;;;;19.33;8.97;;;;;;;9.50;54.86;100505.72;7034551;28;20322;-79
2023/02/05 10:03:56;;;;;;;19.60;9.13;;;;;;;9.25;55.69;100509.22;7039971;28;20204;-78
2023/02/05 10:07:37;;;;;;;16.13;8.60;;;;;;;8.98;56.39;100473.50;7042661;28;20251;-79
2023/02/05 10:10:59;;;;;;;15.87;9.37;;;;;;;9.41;55.67;100511.19;7044046;28;20218;-78
2023/02/05 10:14:28;;;;;;;15.57;9.07;;;;;;;9.05;55.84;100485.34;7045644;28;20193;-78
2023/02/05 10:18:02;;;;;;;16.53;8.63;;;;;;;9.33;55.76;100511.16;7044238;28;20229;-78
2023/02/05 10:21:34;;;;;;;17.17;9.63;;;;;;;9.46;55.62;100516.97;7031534;28;20317;-79
2023/02/05 10:25:41;;;;;;;21.30;10.80;;;;;;;9.29;56.53;100502.53;7030795;28;20300;-79
2023/02/05 10:29:17;;;;;;;17.53;10.37;;;;;;;9.39;56.28;100484.44;6999095;28;20249;-79
2023/02/05 10:32:47;;;;;;;14.97;9.03;;;;;;;9.15;57.15;100445.75;7015689;28;20222;-79
2023/02/05 10:36:09;;;;;;;19.67;8.77;;;;;;;9.41;56.59;100497.75;7015242;28;20338;-80
2023/02/05 10:39:31;;;;;;;14.57;8.87;;;;;;;8.92;56.69;100398.81;7017398;28;20262;-79
2023/02/05 10:42:57;;;;;;;15.07;9.67;;;;;;;9.01;57.13;100429.31;7035331;28;20224;-77
2023/02/05 10:46:20;;;;;;;18.63;9.03;;;;;;;9.01;57.18;100435.50;7042621;28;20205;-78
2023/02/05 10:49:46;;;;;;;17.90;9.33;;;;;;;9.07;57.87;100474.41;7030863;28;20377;-79
2023/02/05 10:53:07;;;;;;;11.93;9.70;;;;;;;9.05;58.12;100467.31;7031158;28;20275;-78
2023/02/05 10:56:29;;;;;;;14.87;9.10;;;;;;;9.10;57.52;100435.41;7030412;28;20296;-77
2023/02/05 10:59:53;;;;;;;15.27;9.43;;;;;;;8.76;58.71;100439.00;7031480;28;20234;-78
2023/02/05 11:03:17;;;;;;;17.10;11.03;;;;;;;9.01;57.95;100438.19;7030872;28;20317;-77
2023/02/05 11:06:42;;;;;;;15.03;9.97;;;;;;;8.99;58.47;100441.03;7029739;28;20350;-78
2023/02/05 11:10:22;;;;;;;13.47;9.50;;;;;;;9.14;57.82;100454.78;7031020;28;20632;-79
2023/02/05 11:13:49;;;;;;;13.23;8.23;;;;;;;9.22;57.24;100430.66;7030599;28;20306;-79
2023/02/05 11:17:20;;;;;;;18.03;9.07;;;;;;;9.28;57.76;100441.59;7028136;28;20211;-78
2023/02/05 11:20:55;;;;;;;14.70;9.07;;;;;;;9.41;57.56;100427.75;7034285;28;20346;-78
2023/02/05 11:24:29;;;;;;;13.90;8.17;;;;;;;9.41;57.57;100422.38;7033618;28;20284;-79
2023/02/05 11:27:52;;;;;;;13.10;8.33;;;;;;;9.47;57.50;100417.19;7034721;28;20834;-79
2023/02/05 11:31:24;;;;;;;13.67;7.90;;;;;;;9.48;57.35;100404.56;7035539;28;20228;-78
2023/02/05 11:34:45;;;;;;;10.97;7.90;;;;;;;9.35;58.45;100414.91;7030571;28;20207;-79
2023/02/05 11:38:10;;;;;;;15.23;9.37;;;;;;;8.74;61.02;100399.81;7020883;28;20314;-77
2023/02/05 11:41:46;;;;;;;15.93;8.87;;;;;;;9.09;60.74;100409.53;7016595;28;20226;-82
2023/02/05 11:45:18;;;;;;;11.27;8.73;;;;;;;9.68;59.07;100403.34;7025458;28;20623;-81
2023/02/05 11:48:42;;;;;;;20.70;8.97;;;;;;;9.89;59.32;100407.31;7037760;28;20224;-82
2023/02/05 11:52:08;;;;;;;13.37;8.30;;;;;;;9.92;58.13;100369.25;7037974;28;20197;-82
2023/02/05 11:55:33;;;;;;;15.40;8.27;;;;;;;10.17;57.38;100381.81;7037156;28;20249;-81
2023/02/05 11:58:59;;;;;;;17.73;9.07;;;;;;;10.04;57.33;100373.38;7038921;28;20366;-80
2023/02/05 12:02:36;;;;;;;13.07;8.77;;;;;;;10.13;57.16;100382.31;7039409;28;20221;-81
2023/02/05 12:06:05;;;;;;;13.90;8.70;;;;;;;10.25;56.62;100370.22;7036515;28;20577;-80
2023/02/05 12:09:27;;;;;;;15.40;9.80;;;;;;;10.19;56.93;100369.06;7039433;28;20790;-80
2023/02/05 12:12:59;;;;;;;16.80;9.30;;;;;;;10.18;56.50;100366.50;7039098;28;20289;-79
2023/02/05 12:16:32;;;;;;;14.57;8.83;;;;;;;10.09;56.99;100375.59;7038847;28;20257;-78
2023/02/05 12:19:58;;;;;;;17.57;10.10;;;;;;;10.27;56.64;100365.53;7036668;28;20285;-78
2023/02/05 12:23:37;;;;;;;13.00;8.63;;;;;;;10.23;56.91;100365.03;7034773;28;20228;-80
2023/02/05 12:27:05;;;;;;;12.87;9.33;;;;;;;10.12;57.38;100367.16;7033354;28;20232;-81
2023/02/05 12:30:46;;;;;;;13.97;9.53;;;;;;;10.33;56.74;100356.78;7039504;28;20229;-80
2023/02/05 12:34:26;;;;;;;13.23;8.87;;;;;;;10.12;57.15;100351.00;7036302;28;20280;-80
2023/02/05 12:37:52;;;;;;;14.67;9.70;;;;;;;9.57;58.45;100355.16;7039791;28;20566;-79
2023/02/05 12:41:22;;;;;;;19.00;11.27;;;;;;;9.83;58.87;100337.06;7038136;28;20309;-79
2023/02/05 12:44:53;;;;;;;15.47;10.83;;;;;;;8.88;60.38;100259.38;7039382;28;20245;-80
2023/02/05 12:48:31;;;;;;;20.07;11.13;;;;;;;9.59;60.30;100334.28;7038461;28;20307;-79
2023/02/05 12:52:02;;;;;;;20.27;11.53;;;;;;;9.51;60.63;100361.19;7038315;28;20186;-82
2023/02/05 12:55:35;;;;;;;23.57;13.43;;;;;;;8.37;63.03;100356.13;7036099;28;20217;-79
2023/02/05 12:59:00;;;;;;;33.57;15.27;;;;;;;9.17;62.09;100361.13;7035855;28;20298;-81
2023/02/05 13:02:27;;;;;;;16.40;10.60;;;;;;;9.13;61.84;100338.25;7037848;28;20241;-78
2023/02/05 13:05:52;;;;;;;21.73;12.27;;;;;;;9.14;61.25;100331.88;7034700;28;20236;-79
2023/02/05 13:09:17;;;;;;;25.57;12.33;;;;;;;9.17;62.01;100354.91;7033514;28;20258;-79
2023/02/05 13:12:42;;;;;;;19.87;10.40;;;;;;;8.81;62.57;100357.84;7031363;28;20209;-80
2023/02/05 13:16:07;;;;;;;16.00;8.73;;;;;;;8.67;62.14;100348.47;7034215;28;20227;-79
2023/02/05 13:19:32;;;;;;;16.17;10.30;;;;;;;9.28;61.26;100357.34;7038107;28;20229;-79
2023/02/05 13:30:21;;;;;;;12.77;8.23;;;;;;;10.03;57.83;100304.31;7020108;28;20296;-79
2023/02/05 13:33:43;;;;;;;13.17;9.83;;;;;;;10.12;57.59;100324.91;7013242;28;20194;-79
2023/02/05 13:37:19;;;;;;;14.13;7.67;;;;;;;10.17;57.64;100321.72;7007440;28;20352;-80
2023/02/05 13:41:16;;;;;;;20.43;12.83;;;;;;;9.50;59.17;100306.47;7031755;28;20299;-79
2023/02/05 13:45:04;;;;;;;14.90;9.00;;;;;;;10.12;58.90;100335.69;7028262;28;20291;-79
2023/02/05 13:49:01;;;;;;;7.10;5.97;;;;;;;10.16;57.00;100331.63;7032975;28;20249;-80
2023/02/05 13:52:34;;;;;;;7.53;6.53;;;;;;;9.81;58.05;100321.06;6995065;28;20193;-79
2023/02/05 13:56:10;;;;;;;9.70;6.13;;;;;;;9.99;57.07;100316.41;7019559;28;20252;-78
2023/02/05 13:59:35;;;;;;;6.37;5.77;;;;;;;9.85;58.05;100330.50;7031823;28;20228;-80
2023/02/05 14:02:57;;;;;;;10.03;6.47;;;;;;;9.87;57.72;100325.78;7022427;28;20689;-79
2023/02/05 14:06:23;;;;;;;7.67;6.77;;;;;;;9.84;57.76;100333.38;7031343;28;20337;-79
2023/02/05 14:09:51;;;;;;;7.40;6.23;;;;;;;9.90;57.63;100292.28;7031921;28;20225;-80
2023/02/05 14:13:19;;;;;;;8.73;6.67;;;;;;;10.10;57.13;100324.22;7037658;28;20657;-79
2023/02/05 14:16:41;;;;;;;8.73;6.90;;;;;;;10.07;57.31;100323.69;7038254;28;20213;-78
2023/02/05 14:20:04;;;;;;;8.07;6.80;;;;;;;10.04;57.33;100324.88;7035082;28;20315;-79
2023/02/05 14:23:54;;;;;;;8.10;6.60;;;;;;;10.11;57.29;100308.91;7036230;28;20231;-79
2023/02/05 14:27:50;;;;;;;8.80;6.97;;;;;;;9.82;57.51;100319.22;7036105;28;20754;-79
2023/02/05 14:31:46;;;;;;;15.30;9.50;;;;;;;8.92;59.97;100312.72;7037149;28;20215;-79
2023/02/05 14:35:27;;;;;;;44.60;22.97;;;;;;;9.49;59.68;100323.63;7037423;28;20257;-78
2023/02/05 14:38:53;;;;;;;16.43;9.67;;;;;;;9.72;58.82;100330.13;7035905;28;20310;-79
2023/02/05 14:42:19;;;;;;;12.47;10.37;;;;;;;9.62;59.54;100320.50;7031628;28;20721;-78
2023/02/05 14:45:45;;;;;;;9.93;7.67;;;;;;;9.52;59.96;100334.06;7031615;28;20276;-79
2023/02/05 14:49:21;;;;;;;7.97;7.17;;;;;;;9.34;60.00;100333.31;7037553;28;20285;-79
2023/02/05 14:52:47;;;;;;;9.90;8.90;;;;;;;9.64;59.38;100330.09;7037070;28;20220;-79
2023/02/05 14:56:30;;;;;;;11.90;8.77;;;;;;;9.04;59.39;100210.06;7037373;28;20599;-80
2023/02/05 14:59:54;;;;;;;10.47;9.03;;;;;;;9.96;58.77;100315.88;7034934;28;20285;-79
2023/02/05 15:03:25;;;;;;;9.60;7.67;;;;;;;9.86;58.62;100310.66;7021885;28;20221;-81
2023/02/05 15:06:49;;;;;;;12.23;7.73;;;;;;;9.01;59.79;100231.06;7015941;28;20206;-78
2023/02/05 15:10:15;;;;;;;13.50;10.53;;;;;;;9.55;60.16;100333.75;7018418;28;20221;-78
2023/02/05 15:13:36;;;;;;;8.47;7.03;;;;;;;9.18;60.70;100325.16;7018997;28;20221;-78
2023/02/05 15:17:32;;;;;;;6.63;5.80;;;;;;;8.92;60.76;100253.56;7046028;28;20212;-79
2023/02/05 15:20:55;;;;;;;5.60;5.10;;;;;;;9.52;60.31;100326.00;7039918;28;20211;-79
2023/02/05 15:24:20;;;;;;;7.73;6.73;;;;;;;9.12;61.05;100341.09;7036836;28;20569;-79
2023/02/05 15:27:44;;;;;;;8.47;6.70;;;;;;;9.21;60.34;100289.03;7041950;28;20274;-79
2023/02/05 15:31:13;;;;;;;15.87;11.43;;;;;;;9.23;60.62;100344.38;7046462;28;20200;-78
2023/02/05 15:34:37;;;;;;;15.50;11.17;;;;;;;9.23;61.17;100355.16;7038110;28;20192;-79
2023/02/05 15:38:03;;;;;;;18.77;13.27;;;;;;;9.15;61.56;100347.00;7035986;28;20242;-79
2023/02/05 15:41:26;;;;;;;10.57;9.30;;;;;;;8.48;62.18;100319.09;7034353;28;20296;-79
2023/02/05 15:44:48;;;;;;;9.33;8.43;;;;;;;9.07;62.35;100358.72;7036031;28;20200;-79
2023/02/05 15:48:12;;;;;;;9.00;7.80;;;;;;;9.11;61.97;100355.56;7040855;28;20252;-79
2023/02/05 15:51:35;;;;;;;8.23;6.87;;;;;;;9.03;61.82;100345.56;7021569;28;20241;-78
2023/02/05 15:55:00;;;;;;;11.30;9.57;;;;;;;9.19;61.67;100343.00;7041513;28;20203;-79
2023/02/05 15:58:24;;;;;;;7.57;6.77;;;;;;;8.85;61.53;100311.66;7043996;28;20285;-79
2023/02/05 16:01:48;;;;;;;10.03;9.03;;;;;;;9.26;61.47;100362.03;7040761;28;20245;-79
2023/02/05 16:05:18;;;;;;;9.93;7.10;;;;;;;9.20;61.41;100371.59;7034862;28;20298;-79
2023/02/05 16:08:45;;;;;;;8.17;7.27;;;;;;;9.50;60.87;100373.78;7035179;28;20324;-79
2023/02/05 16:12:13;;;;;;;8.17;7.30;;;;;;;9.20;60.94;100359.97;7032063;28;20217;-78
2023/02/05 16:15:39;;;;;;;10.40;9.40;;;;;;;9.30;60.86;100387.63;7034724;28;20235;-78
2023/02/05 16:19:03;;;;;;;13.67;10.93;;;;;;;9.04;61.61;100363.41;7034703;28;20322;-78
2023/02/05 16:22:37;;;;;;;10.50;8.40;;;;;;;9.10;61.54;100399.63;7020150;28;20222;-78
2023/02/05 16:26:01;;;;;;;10.33;8.30;;;;;;;9.27;61.51;100380.72;7014786;28;20279;-79
2023/02/05 16:29:25;;;;;;;10.33;8.70;;;;;;;9.38;61.38;100391.22;7013589;28;20225;-79
2023/02/05 16:32:48;;;;;;;10.73;9.63;;;;;;;9.07;61.84;100377.56;7033387;28;20291;-78
2023/02/05 16:36:16;;;;;;;13.83;11.50;;;;;;;9.13;62.04;100397.44;7016799;28;20736;-78
2023/02/05 16:39:43;;;;;;;10.53;9.43;;;;;;;9.35;61.79;100402.31;7021415;28;20245;-78
2023/02/05 16:43:18;;;;;;;10.53;9.40;;;;;;;9.40;61.71;100405.34;7027030;28;20216;-78
2023/02/05 16:46:40;;;;;;;15.33;10.07;;;;;;;9.25;61.73;100373.81;7012058;28;20265;-79
2023/02/05 16:50:36;;;;;;;14.27;10.53;;;;;;;9.15;62.48;100411.59;7007979;28;20232;-79